Time;durP1;ratioP1;P1;durP2;ratioP2;P2;SDS_P1;SDS_P2;PMS_P1;PMS_P2;Temp;Humidity;BMP_temperature;BMP_pressure;BME280_temperature;BME280_humidity;BME280_pressure;Samples;Min_cycle;Max_cycle;Signal;HPM_P1;HPM_P2
2023/09/08 00:01:24;;;;;;;5.72;3.50;;;;;;;17.41;44.11;101940.38;5052839;28;20040;-88
2023/09/08 00:03:50;;;;;;;4.55;3.33;;;;;;;17.48;43.89;101937.47;5065832;28;20093;-88
2023/09/08 00:06:15;;;;;;;4.88;2.92;;;;;;;17.43;43.81;101938.50;5034893;28;20041;-88
2023/09/08 00:08:43;;;;;;;4.78;3.25;;;;;;;17.55;43.96;101929.09;5043842;28;20106;-89
2023/09/08 00:11:08;;;;;;;5.50;3.00;;;;;;;17.39;44.20;101923.75;5051357;28;20160;-88
2023/09/08 00:13:34;;;;;;;5.60;3.53;;;;;;;17.42;43.84;101922.72;5061485;28;20960;-87
2023/09/08 00:15:59;;;;;;;4.30;3.30;;;;;;;17.41;43.99;101926.31;5059958;28;20039;-90
2023/09/08 00:18:25;;;;;;;4.75;3.03;;;;;;;17.47;43.75;101917.19;5046414;28;20056;-89
2023/09/08 00:20:50;;;;;;;3.58;2.75;;;;;;;17.46;43.57;101908.41;5044620;28;20558;-85
2023/09/08 00:23:15;;;;;;;6.45;3.20;;;;;;;17.47;43.49;101915.44;5032702;28;20049;-86
2023/09/08 00:25:41;;;;;;;4.93;3.05;;;;;;;17.33;43.70;101910.00;5048198;28;20131;-89
2023/09/08 00:28:07;;;;;;;5.60;3.75;;;;;;;17.13;44.22;101917.16;5049814;28;20105;-87
2023/09/08 00:30:32;;;;;;;3.85;3.08;;;;;;;17.27;43.77;101912.97;5047640;28;20036;-88
2023/09/08 00:32:58;;;;;;;6.95;4.13;;;;;;;17.26;43.94;101905.97;5044903;28;20044;-87
2023/09/08 00:35:23;;;;;;;3.67;3.38;;;;;;;17.31;43.80;101914.50;5046401;22;20514;-68
2023/09/08 00:37:49;;;;;;;6.90;2.97;;;;;;;17.38;43.55;101910.59;5034579;28;20067;-68
2023/09/08 00:40:15;;;;;;;5.18;2.95;;;;;;;17.26;43.95;101911.25;5024004;28;20076;-69
2023/09/08 00:42:40;;;;;;;4.15;3.47;;;;;;;17.29;43.78;101921.66;5041332;28;20037;-69
2023/09/08 00:45:06;;;;;;;5.97;3.63;;;;;;;17.28;43.76;101914.69;5025440;28;20123;-72
2023/09/08 00:47:31;;;;;;;4.88;3.33;;;;;;;17.33;43.52;101923.22;5020872;28;20045;-68
2023/09/08 00:49:57;;;;;;;5.82;3.50;;;;;;;17.30;43.86;101915.47;5001914;28;20029;-67
2023/09/08 00:52:23;;;;;;;6.75;3.05;;;;;;;17.24;43.99;101917.47;5019255;28;20704;-67
2023/09/08 00:54:49;;;;;;;3.72;3.35;;;;;;;17.26;43.64;101912.09;5020407;28;20048;-67
2023/09/08 00:57:15;;;;;;;3.95;3.30;;;;;;;17.18;44.30;101914.28;5008177;28;20042;-67
2023/09/08 00:59:43;;;;;;;5.47;3.88;;;;;;;17.15;44.02;101920.59;5028096;28;20044;-67
2023/09/08 01:02:09;;;;;;;4.90;3.25;;;;;;;17.15;44.25;101925.88;5023070;28;20029;-66
2023/09/08 01:04:34;;;;;;;5.47;3.35;;;;;;;17.09;44.34;101920.91;5036423;28;20059;-66
2023/09/08 01:07:01;;;;;;;4.10;3.30;;;;;;;17.01;44.28;101921.28;5024719;28;20025;-66
2023/09/08 01:09:27;;;;;;;5.53;3.05;;;;;;;16.96;44.69;101919.84;5020677;28;20045;-66
2023/09/08 01:11:55;;;;;;;10.38;4.28;;;;;;;16.88;44.60;101914.06;5019291;28;20274;-66
2023/09/08 01:14:20;;;;;;;5.05;3.50;;;;;;;16.73;45.09;101908.63;5002787;28;20657;-66
2023/09/08 01:16:46;;;;;;;7.57;4.00;;;;;;;16.78;45.35;101909.25;5022195;28;20028;-67
2023/09/08 01:19:15;;;;;;;5.45;4.30;;;;;;;16.74;45.45;101910.31;4986238;28;20114;-67
2023/09/08 01:21:49;;;;;;;4.68;4.07;;;;;;;16.72;45.23;101912.16;5038721;28;20041;-67
2023/09/08 01:24:32;;;;;;;7.53;4.03;;;;;;;16.72;45.56;101922.72;5021791;28;20057;-67
2023/09/08 01:26:57;;;;;;;4.00;3.60;;;;;;;16.74;45.38;101912.94;5021254;28;20063;-67
2023/09/08 01:29:24;;;;;;;4.95;3.45;;;;;;;16.70;45.52;101919.31;5022972;28;20045;-67
2023/09/08 01:31:50;;;;;;;3.95;3.33;;;;;;;16.66;45.57;101917.75;5019878;28;20601;-67
2023/09/08 01:34:16;;;;;;;5.68;3.88;;;;;;;16.61;45.70;101910.06;5023979;28;20045;-65
2023/09/08 01:36:42;;;;;;;4.13;3.45;;;;;;;16.49;45.84;101907.16;5038709;28;20044;-68
2023/09/08 01:39:08;;;;;;;5.25;4.05;;;;;;;16.53;46.05;101906.06;5021405;28;20058;-71
2023/09/08 01:41:33;;;;;;;4.72;4.07;;;;;;;16.45;46.04;101913.53;5022699;28;20040;-72
2023/09/08 01:43:59;;;;;;;7.55;3.65;;;;;;;16.50;45.99;101908.88;5022820;28;20041;-72
2023/09/08 01:46:25;;;;;;;4.18;3.30;;;;;;;16.42;46.13;101907.47;5042209;28;20073;-72
2023/09/08 01:48:51;;;;;;;6.03;3.55;;;;;;;16.45;45.95;101908.25;5018895;28;20132;-72
2023/09/08 01:51:16;;;;;;;6.18;4.28;;;;;;;16.45;45.79;101918.81;5021980;28;20036;-72
2023/09/08 01:53:42;;;;;;;4.75;3.40;;;;;;;16.36;46.34;101909.56;5004906;28;20044;-73
2023/09/08 01:56:09;;;;;;;5.80;3.70;;;;;;;16.28;46.39;101907.28;5017165;28;20127;-72
2023/09/08 01:58:34;;;;;;;5.35;3.63;;;;;;;16.26;46.42;101903.84;5018457;28;21655;-72
2023/09/08 02:01:05;;;;;;;5.40;3.63;;;;;;;16.16;46.85;101897.31;5035108;28;20546;-72
2023/09/08 02:03:34;;;;;;;6.85;4.32;;;;;;;16.13;46.67;101900.97;5008505;28;20041;-67
2023/09/08 02:06:00;;;;;;;5.72;4.20;;;;;;;16.10;47.14;101897.59;5017314;28;20044;-67
2023/09/08 02:08:25;;;;;;;4.00;3.60;;;;;;;16.08;46.82;101894.19;5018524;28;20132;-67
2023/09/08 02:10:51;;;;;;;5.45;4.45;;;;;;;16.08;46.99;101900.31;5020595;28;20037;-67
2023/09/08 02:13:16;;;;;;;8.10;5.30;;;;;;;16.09;47.03;101895.91;5017533;28;20095;-70
2023/09/08 02:15:42;;;;;;;5.35;4.15;;;;;;;16.06;47.02;101901.31;5023774;28;20076;-66
2023/09/08 02:18:09;;;;;;;4.05;3.60;;;;;;;15.97;47.51;101903.44;5018284;28;20045;-65
2023/09/08 02:20:34;;;;;;;4.45;3.80;;;;;;;15.85;47.88;101893.44;5002320;28;20072;-66
2023/09/08 02:23:05;;;;;;;5.20;4.53;;;;;;;15.80;47.82;101893.66;5022274;28;20064;-65
2023/09/08 02:25:32;;;;;;;5.57;4.75;;;;;;;15.70;48.12;101894.16;5024516;28;20058;-65
2023/09/08 02:27:58;;;;;;;5.95;4.28;;;;;;;15.65;48.51;101898.78;5016377;28;20199;-66
2023/09/08 02:30:23;;;;;;;4.75;3.72;;;;;;;15.54;49.09;101894.84;5003317;28;20033;-66
2023/09/08 02:32:50;;;;;;;7.38;4.90;;;;;;;15.48;48.84;101903.03;5018231;28;20033;-67
2023/09/08 02:35:17;;;;;;;5.22;4.28;;;;;;;15.46;49.07;101894.34;5019672;28;20025;-69
2023/09/08 02:37:42;;;;;;;5.55;4.90;;;;;;;15.34;49.52;101895.72;5022116;28;20652;-67
2023/09/08 02:40:08;;;;;;;5.93;4.13;;;;;;;15.31;49.33;101892.38;5015586;28;20033;-66
2023/09/08 02:42:35;;;;;;;9.00;4.50;;;;;;;15.40;49.24;101891.97;5034721;28;20049;-66
2023/09/08 02:45:00;;;;;;;5.80;4.40;;;;;;;15.40;49.28;101889.34;5031565;28;20021;-66
2023/09/08 02:47:26;;;;;;;5.03;3.90;;;;;;;15.31;49.27;101892.38;5016896;28;20098;-66
2023/09/08 02:49:51;;;;;;;8.18;4.95;;;;;;;15.21;49.88;101891.03;5035180;28;20247;-66
2023/09/08 02:52:19;;;;;;;8.48;5.22;;;;;;;15.26;49.69;101894.34;5019253;28;20164;-66
2023/09/08 02:54:45;;;;;;;6.18;4.25;;;;;;;15.15;49.97;101898.28;5022488;28;20030;-68
2023/09/08 02:57:10;;;;;;;6.50;4.55;;;;;;;15.06;50.40;101888.16;5014580;28;20033;-68
2023/09/08 02:59:36;;;;;;;10.00;4.47;;;;;;;15.06;50.37;101882.88;5019554;28;20036;-68
2023/09/08 03:02:01;;;;;;;5.47;4.50;;;;;;;15.15;50.05;101882.47;5033243;28;20039;-67
2023/09/08 03:04:27;;;;;;;7.78;4.50;;;;;;;15.17;50.08;101885.06;5019137;28;20068;-69
2023/09/08 03:06:52;;;;;;;4.82;4.35;;;;;;;15.03;50.19;101879.50;5039907;28;20031;-69
2023/09/08 03:09:19;;;;;;;6.10;4.45;;;;;;;14.93;50.39;101882.53;5022337;28;20864;-65
2023/09/08 03:11:44;;;;;;;4.47;4.00;;;;;;;14.90;50.45;101882.69;5040712;28;20120;-64
2023/09/08 03:14:10;;;;;;;8.75;5.18;;;;;;;14.85;50.76;101879.38;5020481;28;20119;-65
2023/09/08 03:16:35;;;;;;;5.82;4.13;;;;;;;14.79;50.99;101876.13;5022531;28;20168;-65
2023/09/08 03:19:02;;;;;;;7.53;5.15;;;;;;;14.71;51.15;101877.31;5036509;28;20599;-66
2023/09/08 03:21:28;;;;;;;4.18;3.78;;;;;;;14.68;51.10;101874.84;5018641;28;20041;-64
2023/09/08 03:23:54;;;;;;;5.90;4.57;;;;;;;14.61;51.03;101875.97;5020864;28;20041;-65
2023/09/08 03:26:21;;;;;;;6.10;4.95;;;;;;;14.67;51.57;101870.47;5017945;28;20087;-66
2023/09/08 03:28:46;;;;;;;6.13;4.70;;;;;;;14.70;51.68;101873.00;5035071;28;20414;-65
2023/09/08 03:31:12;;;;;;;4.82;4.32;;;;;;;14.72;51.43;101863.25;5039030;28;21450;-70
2023/09/08 03:33:38;;;;;;;4.88;3.95;;;;;;;14.69;51.65;101866.00;5017762;28;20052;-63
2023/09/08 03:36:06;;;;;;;6.32;4.40;;;;;;;14.72;51.47;101865.91;5015736;28;20111;-64
2023/09/08 03:38:32;;;;;;;8.13;4.55;;;;;;;14.70;51.44;101859.84;5019273;28;20059;-65
2023/09/08 03:40:58;;;;;;;7.32;4.40;;;;;;;14.65;51.82;101859.16;5022340;28;20741;-63
2023/09/08 03:43:25;;;;;;;6.40;4.30;;;;;;;14.71;51.61;101860.69;5023809;28;20042;-64
2023/09/08 03:45:50;;;;;;;11.45;5.70;;;;;;;14.65;52.11;101856.53;5023883;28;20044;-65
2023/09/08 03:48:16;;;;;;;8.43;4.90;;;;;;;14.65;52.19;101858.31;5019741;28;20574;-65
2023/09/08 03:50:45;;;;;;;6.53;5.22;;;;;;;14.66;52.27;101852.13;5025292;28;21413;-65
2023/09/08 03:53:11;;;;;;;6.15;4.70;;;;;;;14.73;52.09;101856.22;5021016;28;20045;-64
2023/09/08 03:55:36;;;;;;;5.93;4.80;;;;;;;14.74;51.61;101861.41;5020376;28;20059;-66
2023/09/08 03:58:02;;;;;;;7.88;5.32;;;;;;;14.81;51.38;101858.50;5036403;28;20045;-64
2023/09/08 04:00:28;;;;;;;6.00;5.20;;;;;;;14.82;51.38;101857.63;5036082;28;20063;-64
2023/09/08 04:02:54;;;;;;;8.10;5.28;;;;;;;14.80;51.16;101855.03;5039685;28;20440;-68
2023/09/08 04:05:20;;;;;;;8.27;6.03;;;;;;;14.73;51.24;101857.06;5023750;28;20106;-64
2023/09/08 04:07:46;;;;;;;6.20;4.88;;;;;;;14.73;51.42;101853.59;5023252;28;20788;-67
2023/09/08 04:10:12;;;;;;;7.20;5.18;;;;;;;14.79;51.08;101853.34;5024539;28;20087;-66
2023/09/08 04:12:39;;;;;;;8.95;5.88;;;;;;;14.62;51.38;101856.66;5024217;28;20040;-69
2023/09/08 04:15:05;;;;;;;6.57;4.65;;;;;;;14.53;51.76;101852.63;5025329;28;20613;-66
2023/09/08 04:17:31;;;;;;;5.50;5.00;;;;;;;14.52;51.74;101843.03;5022841;28;20236;-66
2023/09/08 04:19:57;;;;;;;6.03;4.82;;;;;;;14.60;51.05;101847.97;5010593;28;20111;-66
2023/09/08 04:22:23;;;;;;;7.72;5.05;;;;;;;14.60;50.98;101842.72;5036364;28;20626;-64
2023/09/08 04:24:49;;;;;;;8.57;5.82;;;;;;;14.66;50.87;101845.09;5039879;28;20029;-65
2023/09/08 04:27:15;;;;;;;5.97;4.95;;;;;;;14.53;51.15;101847.38;5018150;28;20024;-64
2023/09/08 04:29:40;;;;;;;6.68;4.97;;;;;;;14.40;51.23;101840.03;5022158;28;20033;-64
2023/09/08 04:32:08;;;;;;;6.90;6.03;;;;;;;14.36;51.54;101839.28;5020031;28;20498;-67
2023/09/08 04:34:39;;;;;;;6.05;5.15;;;;;;;14.34;51.74;101835.84;5041039;28;20598;-67
2023/09/08 04:37:05;;;;;;;6.72;5.45;;;;;;;14.36;51.51;101834.88;5021757;28;20032;-69
2023/09/08 04:39:31;;;;;;;7.40;5.13;;;;;;;14.39;51.40;101835.66;5039543;28;20056;-67
2023/09/08 04:41:57;;;;;;;7.35;5.30;;;;;;;14.39;51.24;101833.91;5043517;28;20545;-67
2023/09/08 04:44:22;;;;;;;8.95;5.97;;;;;;;14.28;51.66;101836.13;5014985;28;20296;-67
2023/09/08 04:46:48;;;;;;;7.00;4.78;;;;;;;14.21;51.72;101839.91;5022933;28;20029;-65
2023/09/08 04:49:14;;;;;;;6.47;4.88;;;;;;;14.26;51.59;101837.97;5022183;28;20572;-65
2023/09/08 04:51:39;;;;;;;8.18;4.88;;;;;;;14.27;51.63;101848.41;5021496;28;20110;-66
2023/09/08 04:54:05;;;;;;;8.13;5.85;;;;;;;14.15;52.07;101841.88;5034611;28;20044;-66
2023/09/08 04:56:31;;;;;;;4.80;4.18;;;;;;;14.05;52.06;101843.13;5017697;28;20025;-66
2023/09/08 04:59:00;;;;;;;5.30;4.72;;;;;;;14.06;52.18;101842.22;5020148;28;20045;-65
2023/09/08 05:01:32;;;;;;;8.10;5.18;;;;;;;14.03;52.26;101846.75;5018307;28;20409;-65
2023/09/08 05:03:59;;;;;;;8.38;4.43;;;;;;;14.04;52.38;101848.47;5025089;28;20106;-65
2023/09/08 05:06:28;;;;;;;7.75;6.10;;;;;;;14.06;52.22;101847.50;5018557;28;20032;-66
2023/09/08 05:08:54;;;;;;;6.68;5.55;;;;;;;14.00;52.55;101842.47;5031993;28;20040;-65
2023/09/08 05:11:22;;;;;;;7.20;5.25;;;;;;;14.06;52.28;101836.97;5023322;28;20136;-65
2023/09/08 05:13:48;;;;;;;9.15;5.72;;;;;;;14.11;52.38;101844.69;5013589;28;20122;-65
2023/09/08 05:16:13;;;;;;;8.70;6.10;;;;;;;14.23;51.70;101841.56;5018735;28;20036;-65
2023/09/08 05:18:44;;;;;;;7.75;5.63;;;;;;;14.40;51.19;101850.53;5024496;28;20123;-65
2023/09/08 05:21:10;;;;;;;5.45;4.93;;;;;;;14.40;50.89;101843.50;5020292;28;20579;-65
2023/09/08 05:23:35;;;;;;;6.93;4.85;;;;;;;14.53;50.78;101843.91;5006441;28;20037;-65
2023/09/08 05:26:01;;;;;;;9.95;5.03;;;;;;;14.51;50.84;101843.94;5036309;28;20033;-66
2023/09/08 05:28:29;;;;;;;6.97;6.30;;;;;;;14.55;50.63;101844.69;5033717;28;20037;-66
2023/09/08 05:31:00;;;;;;;6.25;5.65;;;;;;;14.63;50.55;101845.19;5037447;28;20028;-67
2023/09/08 05:33:26;;;;;;;9.55;5.75;;;;;;;14.70;50.21;101846.69;5011028;28;20067;-65
2023/09/08 05:35:52;;;;;;;6.35;5.72;;;;;;;14.74;49.98;101842.97;5023202;28;20126;-67
2023/09/08 05:38:18;;;;;;;7.47;6.07;;;;;;;14.89;49.59;101849.38;5020716;28;20079;-67
2023/09/08 05:40:49;;;;;;;13.32;6.75;;;;;;;14.98;49.25;101845.50;5040357;28;20171;-66
2023/09/08 05:43:14;;;;;;;5.47;4.75;;;;;;;15.02;49.47;101839.19;5018564;28;20056;-68
2023/09/08 05:45:40;;;;;;;6.78;4.68;;;;;;;15.08;49.40;101838.91;5003680;28;20132;-66
2023/09/08 05:48:06;;;;;;;5.35;4.82;;;;;;;15.21;48.90;101835.72;5021936;28;20037;-66
2023/09/08 05:50:34;;;;;;;6.80;5.20;;;;;;;15.23;48.58;101833.91;5032662;28;20029;-66
2023/09/08 05:52:59;;;;;;;7.57;4.75;;;;;;;15.23;49.04;101852.34;5036605;28;20051;-65
2023/09/08 05:55:25;;;;;;;5.70;5.00;;;;;;;15.30;48.73;101843.25;4999780;28;20028;-66
2023/09/08 05:57:51;;;;;;;7.70;5.60;;;;;;;15.34;48.83;101842.19;5020811;28;20075;-66
2023/09/08 06:00:17;;;;;;;9.18;5.40;;;;;;;15.41;48.55;101833.09;5002006;28;20071;-66
2023/09/08 06:02:47;;;;;;;6.68;4.80;;;;;;;15.86;47.60;101841.56;4997094;28;20056;-66
2023/09/08 06:05:15;;;;;;;6.88;5.28;;;;;;;17.18;43.97;101835.91;5032986;28;20047;-68
2023/09/08 06:07:40;;;;;;;6.07;4.68;;;;;;;19.17;39.78;101844.09;5032734;28;20036;-69
2023/09/08 06:10:12;;;;;;;4.72;4.22;;;;;;;21.26;37.22;101830.38;5015114;28;20025;-69
2023/09/08 06:12:38;;;;;;;7.85;4.72;;;;;;;22.72;33.30;101837.53;5026576;28;20040;-69
2023/09/08 06:15:05;;;;;;;6.93;4.65;;;;;;;23.37;31.97;101834.22;5025285;28;20029;-69
2023/09/08 06:17:37;;;;;;;5.75;4.40;;;;;;;24.61;30.81;101830.31;5017696;28;20418;-69
2023/09/08 06:20:03;;;;;;;4.22;3.83;;;;;;;25.15;28.86;101823.00;5025153;28;20127;-69
2023/09/08 06:22:35;;;;;;;4.90;4.35;;;;;;;24.87;30.25;101830.75;5012525;28;20110;-69
2023/09/08 06:25:02;;;;;;;5.50;4.05;;;;;;;25.18;29.27;101830.78;5022073;28;20494;-70
2023/09/08 06:27:27;;;;;;;8.02;4.78;;;;;;;25.14;28.94;101826.69;5032570;28;20045;-69
2023/09/08 06:29:56;;;;;;;6.03;4.45;;;;;;;25.59;28.35;101821.78;5008274;28;20116;-69
2023/09/08 06:32:24;;;;;;;5.57;4.60;;;;;;;25.03;28.76;101831.13;5035494;28;20483;-69
2023/09/08 06:35:00;;;;;;;6.25;4.53;;;;;;;24.81;29.79;101833.94;5021933;28;20474;-65
2023/09/08 06:37:25;;;;;;;4.80;4.40;;;;;;;24.76;29.90;101828.16;5001802;28;20029;-64
2023/09/08 06:39:57;;;;;;;6.38;4.13;;;;;;;24.99;29.76;101829.69;5002671;28;20106;-64
2023/09/08 06:42:25;;;;;;;9.40;4.78;;;;;;;26.53;27.74;101831.97;5007380;28;20045;-64
2023/09/08 06:45:03;;;;;;;5.93;4.10;;;;;;;26.39;27.71;101832.41;5022898;28;20033;-63
2023/09/08 06:47:31;;;;;;;5.43;4.22;;;;;;;26.37;28.01;101831.72;5009235;28;20494;-64
2023/09/08 06:49:56;;;;;;;4.55;3.45;;;;;;;26.77;26.53;101841.41;5021179;28;20029;-65
2023/09/08 06:52:25;;;;;;;7.40;4.90;;;;;;;26.55;26.93;101832.66;5015959;28;20524;-64
2023/09/08 06:54:50;;;;;;;6.72;4.60;;;;;;;27.96;26.65;101831.63;5023344;28;20040;-64
2023/09/08 06:57:21;;;;;;;4.90;3.28;;;;;;;28.10;25.02;101831.09;5009633;28;20037;-64
2023/09/08 06:59:49;;;;;;;5.13;4.60;;;;;;;26.90;27.39;101832.03;5020790;28;20042;-66
2023/09/08 07:02:15;;;;;;;4.32;3.92;;;;;;;27.33;25.98;101824.41;5022673;28;20151;-66
2023/09/08 07:04:41;;;;;;;5.70;4.18;;;;;;;27.71;26.17;101826.03;5020782;28;20494;-66
2023/09/08 07:07:10;;;;;;;5.93;4.45;;;;;;;27.71;25.92;101827.88;5014956;28;20038;-62
2023/09/08 07:09:37;;;;;;;5.72;4.22;;;;;;;27.07;26.76;101827.75;5020463;28;20097;-68
2023/09/08 07:12:43;;;;;;;5.28;3.70;;;;;;;27.78;26.38;101828.94;5037480;28;20033;-69
2023/09/08 07:15:10;;;;;;;5.55;4.28;;;;;;;27.61;25.86;101829.72;5005939;28;20506;-66
2023/09/08 07:17:38;;;;;;;6.32;3.53;;;;;;;27.96;25.87;101830.78;5011030;28;20067;-65
2023/09/08 07:20:05;;;;;;;5.10;3.83;;;;;;;28.33;24.78;101825.25;5041215;28;20565;-65
2023/09/08 07:22:31;;;;;;;5.25;4.45;;;;;;;28.47;25.04;101818.47;5007746;28;20058;-66
2023/09/08 07:24:56;;;;;;;5.70;5.10;;;;;;;28.14;25.32;101828.97;5034603;28;20402;-66
2023/09/08 07:27:27;;;;;;;4.55;4.15;;;;;;;27.33;26.09;101829.75;5017579;28;20601;-70
2023/09/08 07:29:55;;;;;;;4.75;4.35;;;;;;;27.60;25.70;101833.41;5004714;28;20190;-67
2023/09/08 07:32:24;;;;;;;4.32;3.92;;;;;;;28.07;25.46;101827.88;5037930;28;20127;-69
2023/09/08 07:34:54;;;;;;;6.50;4.43;;;;;;;28.50;25.18;101834.28;5023612;28;20032;-69
2023/09/08 07:37:25;;;;;;;5.32;4.03;;;;;;;28.96;24.92;101834.94;5039280;28;20555;-68
2023/09/08 07:39:51;;;;;;;7.40;4.80;;;;;;;29.30;23.93;101832.25;5020543;28;20056;-69
2023/09/08 07:42:20;;;;;;;3.92;3.50;;;;;;;29.42;23.95;101835.50;5026657;28;20049;-70
2023/09/08 07:44:45;;;;;;;4.63;3.67;;;;;;;30.35;22.97;101835.28;5021465;28;20792;-70
2023/09/08 07:47:13;;;;;;;9.13;3.97;;;;;;;30.27;23.07;101838.00;5030522;28;20043;-72
2023/09/08 07:49:39;;;;;;;5.78;4.45;;;;;;;29.76;23.72;101826.50;5020343;28;20066;-73
2023/09/08 07:52:07;;;;;;;5.95;4.63;;;;;;;29.10;24.68;101822.72;5025751;28;20036;-75
2023/09/08 07:54:33;;;;;;;6.70;4.45;;;;;;;30.12;23.68;101815.44;5023286;28;20049;-68
2023/09/08 07:57:01;;;;;;;5.28;4.00;;;;;;;29.65;24.03;101813.34;5021620;28;20683;-66
2023/09/08 07:59:26;;;;;;;5.30;4.70;;;;;;;29.11;24.70;101819.91;5025517;28;20049;-65
2023/09/08 08:01:51;;;;;;;5.13;4.10;;;;;;;29.57;24.09;101816.81;5026448;28;20502;-65
2023/09/08 08:04:17;;;;;;;4.35;3.95;;;;;;;29.60;23.86;101815.72;5018734;28;20063;-65
2023/09/08 08:06:43;;;;;;;4.35;3.95;;;;;;;29.95;24.20;101815.41;5031858;28;20068;-64
2023/09/08 08:09:10;;;;;;;7.55;3.97;;;;;;;30.42;23.79;101818.44;5020080;28;20041;-66
2023/09/08 08:11:38;;;;;;;7.80;4.27;;;;;;;30.43;23.32;101820.97;5019624;28;20803;-65
2023/09/08 08:14:06;;;;;;;9.80;4.85;;;;;;;30.66;22.76;101821.13;5010241;28;20098;-66
2023/09/08 08:16:31;;;;;;;3.80;3.40;;;;;;;30.77;22.73;101820.75;5020307;28;20159;-66
2023/09/08 08:18:57;;;;;;;7.85;4.43;;;;;;;31.52;23.17;101821.34;5012664;28;20135;-66
2023/09/08 08:21:25;;;;;;;7.47;4.40;;;;;;;31.62;22.07;101822.75;5020257;28;20119;-66
2023/09/08 08:23:51;;;;;;;5.60;4.10;;;;;;;32.93;21.54;101817.25;5019389;28;20049;-67
2023/09/08 08:26:21;;;;;;;4.63;3.72;;;;;;;32.94;20.77;101814.31;5019767;28;20789;-66
2023/09/08 08:28:47;;;;;;;4.35;3.95;;;;;;;32.28;21.67;101813.34;5017505;28;20135;-66
2023/09/08 08:31:12;;;;;;;5.93;3.40;;;;;;;31.87;21.83;101811.75;5016524;28;20116;-66
2023/09/08 08:33:40;;;;;;;6.55;4.75;;;;;;;31.74;21.85;101816.94;5010106;28;20052;-66
2023/09/08 08:36:07;;;;;;;7.47;4.47;;;;;;;30.56;23.79;101812.38;5019767;28;20097;-66
2023/09/08 08:38:32;;;;;;;4.38;3.45;;;;;;;30.71;23.99;101807.97;5019772;28;20041;-64
2023/09/08 08:41:04;;;;;;;5.95;4.18;;;;;;;30.51;24.18;101812.88;5017548;28;20037;-63
2023/09/08 08:43:33;;;;;;;6.82;4.32;;;;;;;29.94;24.65;101813.72;5020914;28;20061;-65
2023/09/08 08:46:01;;;;;;;9.23;3.67;;;;;;;29.14;26.13;101814.19;5018880;28;20037;-65
2023/09/08 08:48:29;;;;;;;6.47;4.85;;;;;;;29.00;25.87;101813.94;5017648;28;20049;-65
2023/09/08 08:50:57;;;;;;;5.32;4.80;;;;;;;28.39;26.69;101815.72;5024076;28;20032;-65
2023/09/08 08:53:26;;;;;;;5.70;4.37;;;;;;;28.39;27.29;101813.03;5017619;28;20553;-66
2023/09/08 08:55:58;;;;;;;4.82;4.43;;;;;;;28.37;27.48;101804.28;5021357;28;20037;-64
2023/09/08 08:58:48;;;;;;;8.50;5.50;;;;;;;27.63;28.84;101807.16;4989911;28;20045;-65
2023/09/08 09:01:17;;;;;;;10.20;5.68;;;;;;;27.22;29.17;101803.97;5012067;28;20061;-66
2023/09/08 09:03:48;;;;;;;4.70;3.60;;;;;;;27.14;30.07;101806.56;5003122;28;20048;-65
2023/09/08 09:06:17;;;;;;;8.98;5.13;;;;;;;27.10;29.26;101806.00;5017906;28;20041;-64
2023/09/08 09:08:43;;;;;;;4.43;3.70;;;;;;;26.76;30.46;101812.88;5015566;28;20565;-64
2023/09/08 09:11:19;;;;;;;5.05;4.57;;;;;;;27.07;30.12;101808.09;5018832;28;20036;-64
2023/09/08 09:13:49;;;;;;;5.38;4.80;;;;;;;27.46;29.92;101813.31;4982709;28;20048;-64
2023/09/08 09:16:22;;;;;;;5.38;4.38;;;;;;;27.71;29.73;101807.22;5016633;28;20368;-65
2023/09/08 09:18:59;;;;;;;7.22;4.05;;;;;;;27.49;29.44;101811.16;5008956;28;20044;-65
2023/09/08 09:21:46;;;;;;;5.53;4.60;;;;;;;27.35;30.31;101817.03;5016184;28;20037;-67
2023/09/08 09:24:16;;;;;;;3.75;3.45;;;;;;;27.80;29.40;101810.84;5022652;28;20139;-64
2023/09/08 09:26:46;;;;;;;5.30;4.65;;;;;;;27.91;29.20;101815.13;5013281;28;20082;-64
2023/09/08 09:29:20;;;;;;;7.22;4.35;;;;;;;27.91;29.50;101812.44;5019148;28;20056;-66
2023/09/08 09:31:56;;;;;;;8.20;4.75;;;;;;;27.68;30.05;101817.44;5017540;28;20029;-65
2023/09/08 09:34:25;;;;;;;6.28;4.05;;;;;;;27.92;29.78;101817.69;5007876;28;20041;-65
2023/09/08 09:36:51;;;;;;;4.95;4.07;;;;;;;27.60;29.72;101815.47;5017362;28;20041;-65
2023/09/08 09:39:20;;;;;;;7.15;4.50;;;;;;;27.79;29.63;101819.91;5015100;28;20042;-65
2023/09/08 09:41:47;;;;;;;3.90;3.60;;;;;;;28.24;28.82;101810.09;5017598;28;20024;-64
2023/09/08 09:44:18;;;;;;;7.82;4.82;;;;;;;28.29;29.39;101813.97;5008470;28;20166;-67
2023/09/08 09:46:49;;;;;;;7.35;4.07;;;;;;;28.85;27.73;101808.31;5033307;28;20110;-65
2023/09/08 09:49:17;;;;;;;4.47;4.07;;;;;;;29.19;28.38;101808.31;4980934;28;20049;-66
2023/09/08 09:51:52;;;;;;;4.75;3.97;;;;;;;28.68;29.34;101812.75;5012231;28;20060;-67
2023/09/08 09:54:23;;;;;;;4.78;4.30;;;;;;;28.68;28.57;101804.66;5018907;28;20623;-65
2023/09/08 09:56:54;;;;;;;9.07;3.90;;;;;;;28.73;28.45;101805.91;5016023;28;20116;-65
2023/09/08 09:59:26;;;;;;;5.80;4.43;;;;;;;28.39;28.40;101804.97;5011202;28;20060;-62
2023/09/08 10:01:59;;;;;;;7.28;4.63;;;;;;;28.05;29.25;101808.38;5013038;28;20214;-64
2023/09/08 10:04:33;;;;;;;7.57;4.18;;;;;;;28.30;29.30;101804.06;5029785;28;20048;-67
2023/09/08 10:07:01;;;;;;;4.35;3.47;;;;;;;27.90;29.40;101800.88;5021365;28;20106;-67
2023/09/08 10:09:27;;;;;;;5.15;3.85;;;;;;;28.00;30.01;101805.31;5017352;28;20079;-65
2023/09/08 10:11:54;;;;;;;4.78;3.40;;;;;;;28.22;30.75;101804.00;5015592;28;20116;-65
2023/09/08 10:14:21;;;;;;;4.18;3.78;;;;;;;28.69;29.77;101801.84;5017382;28;20049;-66
2023/09/08 10:16:52;;;;;;;8.73;4.38;;;;;;;28.44;28.99;101802.66;5016957;28;20041;-67
2023/09/08 10:19:18;;;;;;;4.70;4.20;;;;;;;28.55;29.08;101799.72;5033131;28;20418;-66
2023/09/08 10:21:48;;;;;;;7.38;3.50;;;;;;;28.45;29.14;101788.22;5020303;28;20064;-66
2023/09/08 10:24:18;;;;;;;4.95;3.75;;;;;;;29.08;29.68;101793.28;5017838;28;20066;-66
2023/09/08 10:26:51;;;;;;;8.40;3.58;;;;;;;29.01;28.43;101788.69;5018135;28;20029;-65
2023/09/08 10:29:18;;;;;;;5.45;3.88;;;;;;;28.42;28.99;101777.78;5018149;28;20326;-65
2023/09/08 10:31:44;;;;;;;3.75;3.25;;;;;;;28.73;30.23;101781.69;5017934;28;20037;-66
2023/09/08 10:34:11;;;;;;;7.50;3.67;;;;;;;29.02;28.77;101775.09;5014773;28;20037;-66
2023/09/08 10:36:38;;;;;;;4.75;4.35;;;;;;;29.02;29.03;101777.78;5017528;28;20057;-64
2023/09/08 10:39:35;;;;;;;7.78;3.55;;;;;;;29.06;29.74;101773.78;5015256;28;20057;-67
2023/09/08 10:42:16;;;;;;;5.95;4.05;;;;;;;28.75;29.23;101771.63;5017092;28;20548;-65
2023/09/08 10:45:05;;;;;;;5.60;3.75;;;;;;;28.77;29.16;101770.59;5033331;28;20271;-64
2023/09/08 10:47:34;;;;;;;5.40;4.07;;;;;;;29.15;29.00;101770.13;5015879;28;20410;-64
2023/09/08 10:50:00;;;;;;;5.45;4.35;;;;;;;29.35;28.17;101769.84;5017869;28;20151;-66
2023/09/08 10:52:25;;;;;;;8.57;3.10;;;;;;;29.32;30.05;101775.53;5018077;28;20406;-64
2023/09/08 10:54:53;;;;;;;5.50;3.38;;;;;;;29.73;28.72;101772.97;5019108;28;20033;-64
2023/09/08 10:57:22;;;;;;;3.90;3.45;;;;;;;29.75;28.30;101770.91;5018320;28;20033;-65
2023/09/08 10:59:59;;;;;;;4.05;3.45;;;;;;;29.93;28.61;101768.94;5019376;28;20228;-65
2023/09/08 11:02:39;;;;;;;3.83;3.42;;;;;;;29.40;28.70;101780.97;5016234;28;20128;-65
2023/09/08 11:05:11;;;;;;;6.93;3.70;;;;;;;29.22;28.55;101780.25;5017344;28;20034;-63
2023/09/08 11:07:38;;;;;;;4.35;3.65;;;;;;;29.32;29.51;101779.06;5014377;28;20419;-65
2023/09/08 11:10:04;;;;;;;3.83;3.40;;;;;;;29.35;28.88;101775.25;5016234;28;20037;-65
2023/09/08 11:12:31;;;;;;;4.45;3.55;;;;;;;29.56;28.96;101782.84;5015515;28;20155;-66
2023/09/08 11:15:00;;;;;;;4.47;3.30;;;;;;;29.79;28.43;101772.28;5017495;28;20033;-66
2023/09/08 11:17:27;;;;;;;3.70;3.40;;;;;;;29.68;28.30;101769.91;5021003;28;20028;-64
2023/09/08 11:19:54;;;;;;;4.40;3.65;;;;;;;30.05;28.09;101766.72;5017215;28;20074;-66
2023/09/08 11:22:23;;;;;;;4.55;3.47;;;;;;;29.91;27.56;101760.16;5019675;28;20033;-67
2023/09/08 11:24:49;;;;;;;7.68;4.15;;;;;;;29.97;28.21;101764.88;5023914;28;20033;-66
2023/09/08 11:27:15;;;;;;;3.97;3.60;;;;;;;29.97;28.60;101761.31;5014534;28;20048;-66